createdAt,value
2018-12-18T00:00:00.065Z,15.90
2018-12-18T00:01:00.638Z,15.86
2018-12-18T00:02:01.213Z,15.95
2018-12-18T00:03:46.497Z,15.91
2018-12-18T00:04:47.071Z,15.82
2018-12-18T00:05:47.644Z,15.83
2018-12-18T00:06:48.216Z,15.83
2018-12-18T00:08:33.303Z,15.86
2018-12-18T00:09:33.879Z,15.88
2018-12-18T00:10:34.451Z,15.86
2018-12-18T00:11:35.024Z,15.94
2018-12-18T00:13:20.175Z,15.94
2018-12-18T00:14:20.732Z,15.88
2018-12-18T00:15:21.357Z,15.83
2018-12-18T00:16:21.928Z,15.84
2018-12-18T00:18:07.064Z,15.82
2018-12-18T00:19:07.639Z,15.82
2018-12-18T00:20:08.211Z,15.86
2018-12-18T00:21:08.784Z,15.90
2018-12-18T00:22:53.873Z,15.88
2018-12-18T00:23:54.441Z,15.82
2018-12-18T00:24:55.013Z,15.84
2018-12-18T00:25:55.587Z,15.84
2018-12-18T00:27:40.673Z,15.84
2018-12-18T00:28:41.247Z,15.86
2018-12-18T00:29:41.820Z,15.84
2018-12-18T00:30:42.493Z,15.88
2018-12-18T00:32:27.676Z,15.83
2018-12-18T00:33:28.251Z,15.86
2018-12-18T00:34:28.824Z,15.80
2018-12-18T00:35:29.399Z,15.88
2018-12-18T00:37:14.534Z,15.82
2018-12-18T00:38:15.163Z,15.92
2018-12-18T00:39:15.738Z,15.83
2018-12-18T00:40:16.309Z,15.86
2018-12-18T00:42:01.398Z,15.90
2018-12-18T00:43:01.971Z,15.82
2018-12-18T00:44:02.545Z,15.82
2018-12-18T00:45:03.117Z,15.83
2018-12-18T00:46:48.204Z,15.92
2018-12-18T00:47:48.782Z,15.86
2018-12-18T00:48:49.395Z,15.79
2018-12-18T00:49:50.018Z,15.80
2018-12-18T00:51:35.153Z,15.84
2018-12-18T00:52:35.728Z,15.80
2018-12-18T00:53:36.300Z,15.79
2018-12-18T00:54:36.873Z,15.92
2018-12-18T00:56:22.013Z,15.82
2018-12-18T00:57:22.585Z,15.77
2018-12-18T00:58:23.155Z,15.80
2018-12-18T00:59:23.767Z,15.94
2018-12-18T01:01:08.858Z,15.83
2018-12-18T01:02:09.432Z,15.84
2018-12-18T01:03:10.005Z,15.83
2018-12-18T01:04:10.579Z,15.84
2018-12-18T01:05:55.666Z,15.79
2018-12-18T01:06:56.239Z,15.75
2018-12-18T01:07:56.815Z,15.77
2018-12-18T01:08:57.437Z,15.86
2018-12-18T01:10:42.521Z,15.86
2018-12-18T01:11:43.143Z,15.86
2018-12-18T01:12:43.765Z,15.86
2018-12-18T01:13:44.337Z,15.86
2018-12-18T01:15:29.422Z,15.72
2018-12-18T01:16:29.996Z,15.82
2018-12-18T01:17:30.569Z,15.79
2018-12-18T01:18:31.142Z,15.82
2018-12-18T01:20:16.231Z,15.83
2018-12-18T01:21:16.803Z,15.83
2018-12-18T01:22:17.376Z,15.76
2018-12-18T01:23:17.950Z,15.76
2018-12-18T01:25:03.036Z,15.83
2018-12-18T01:26:03.609Z,15.72
2018-12-18T01:27:04.181Z,15.75
2018-12-18T01:28:04.756Z,15.79
2018-12-18T01:29:49.892Z,15.76
2018-12-18T01:30:50.465Z,15.72
2018-12-18T01:31:51.088Z,15.75
2018-12-18T01:32:51.712Z,15.72
2018-12-18T01:34:36.796Z,15.77
2018-12-18T01:35:37.370Z,15.75
2018-12-18T01:36:37.943Z,15.61
2018-12-18T01:37:38.516Z,15.65
2018-12-18T01:39:23.607Z,15.67
2018-12-18T01:40:24.177Z,15.68
2018-12-18T01:41:24.750Z,15.65
2018-12-18T01:42:25.323Z,15.61
2018-12-18T01:44:10.410Z,15.72
2018-12-18T01:45:10.983Z,15.65
2018-12-18T01:46:11.556Z,15.73
2018-12-18T01:47:12.131Z,15.62
2018-12-18T01:48:57.267Z,15.76
2018-12-18T01:49:57.840Z,15.76
2018-12-18T01:50:58.463Z,15.68
2018-12-18T01:51:59.035Z,15.72
2018-12-18T01:53:44.120Z,15.70
2018-12-18T01:54:44.697Z,15.72
2018-12-18T01:55:45.317Z,15.75
2018-12-18T01:56:45.890Z,15.75
2018-12-18T01:58:30.976Z,15.76
2018-12-18T01:59:31.552Z,15.65
2018-12-18T02:00:32.164Z,15.62
2018-12-18T02:01:32.737Z,15.61
2018-12-18T02:03:17.827Z,15.61
2018-12-18T02:04:18.447Z,15.61
2018-12-18T02:05:19.018Z,15.59
2018-12-18T02:06:19.642Z,15.61
2018-12-18T02:08:04.728Z,15.58
2018-12-18T02:09:05.301Z,15.52
2018-12-18T02:10:05.875Z,15.54
2018-12-18T02:11:06.448Z,15.55
2018-12-18T02:12:51.534Z,15.52
2018-12-18T02:13:52.107Z,15.52
2018-12-18T02:14:52.681Z,15.59
2018-12-18T02:15:53.303Z,15.59
2018-12-18T02:17:38.387Z,15.64
2018-12-18T02:18:38.960Z,15.64
2018-12-18T02:19:39.533Z,15.59
2018-12-18T02:20:40.107Z,15.65
2018-12-18T02:22:25.192Z,15.70
2018-12-18T02:23:25.816Z,15.72
2018-12-18T02:25:27.994Z,15.77
2018-12-18T02:27:12.909Z,15.65
2018-12-18T02:28:13.474Z,15.65
2018-12-18T02:29:14.042Z,15.70
2018-12-18T02:30:14.606Z,15.65
2018-12-18T02:31:59.569Z,15.64
2018-12-18T02:33:17.970Z,15.70
2018-12-18T02:34:18.543Z,15.64
2018-12-18T02:42:46.106Z,15.62
2018-12-18T02:43:46.681Z,15.65
2018-12-18T03:03:37.733Z,15.64
2018-12-18T03:20:22.961Z,15.72
2018-12-18T03:21:23.537Z,15.79
2018-12-18T03:22:24.158Z,15.70
2018-12-18T03:23:24.731Z,15.72
2018-12-18T03:25:09.873Z,15.76
2018-12-18T03:26:10.444Z,15.76
2018-12-18T03:27:11.013Z,15.77
2018-12-18T03:28:11.587Z,15.73
2018-12-18T03:29:56.671Z,15.72
2018-12-18T03:30:57.579Z,15.64
2018-12-18T03:31:58.247Z,15.61
2018-12-18T03:32:58.824Z,15.61
2018-12-18T03:34:43.905Z,15.55
2018-12-18T03:35:44.482Z,15.47
2018-12-18T03:36:45.104Z,15.44
2018-12-18T03:37:45.676Z,15.54
2018-12-18T03:39:30.811Z,15.49
2018-12-18T03:40:31.384Z,15.47
2018-12-18T03:41:31.957Z,15.46
2018-12-18T03:42:32.580Z,15.40
2018-12-18T03:44:17.867Z,15.44
2018-12-18T03:45:18.437Z,15.44
2018-12-18T03:46:19.015Z,15.42
2018-12-18T03:47:19.582Z,15.52
2018-12-18T03:49:04.669Z,15.46
2018-12-18T03:50:05.244Z,15.49
2018-12-18T03:51:05.837Z,15.51
2018-12-18T03:52:06.409Z,15.54
2018-12-18T03:53:51.539Z,15.52
2018-12-18T03:54:52.114Z,15.47
2018-12-18T03:55:52.687Z,15.51
2018-12-18T03:56:53.463Z,15.44
2018-12-18T03:58:38.596Z,15.57
2018-12-18T03:59:39.220Z,15.49
2018-12-18T04:00:39.791Z,15.55
2018-12-18T04:01:40.365Z,15.57
2018-12-18T04:03:25.450Z,15.61
2018-12-18T04:04:26.023Z,15.61
2018-12-18T04:05:26.638Z,15.58
2018-12-18T04:06:27.215Z,15.65
2018-12-18T04:08:12.297Z,15.59
2018-12-18T04:09:12.871Z,15.59
2018-12-18T04:10:13.444Z,15.59
2018-12-18T04:11:14.018Z,15.62
2018-12-18T04:12:59.152Z,15.62
2018-12-18T04:13:59.726Z,15.64
2018-12-18T04:15:00.297Z,15.61
2018-12-18T04:16:00.873Z,15.65
2018-12-18T04:17:46.005Z,15.67
2018-12-18T04:18:46.579Z,15.59
2018-12-18T04:19:47.201Z,15.65
2018-12-18T04:20:47.790Z,15.65
2018-12-18T04:22:32.859Z,15.68
2018-12-18T04:23:33.431Z,15.65
2018-12-18T04:24:34.006Z,15.65
2018-12-18T04:25:34.577Z,15.64
2018-12-18T04:27:19.665Z,15.65
2018-12-18T04:28:20.237Z,15.59
2018-12-18T04:29:20.819Z,15.64
2018-12-18T04:30:21.427Z,15.64
2018-12-18T04:32:06.664Z,15.67
2018-12-18T04:33:07.236Z,15.68
2018-12-18T04:34:07.860Z,15.67
2018-12-18T04:35:08.432Z,15.64
2018-12-18T04:36:53.568Z,15.64
2018-12-18T04:37:54.143Z,15.59
2018-12-18T04:38:54.714Z,15.65
2018-12-18T04:39:55.301Z,15.61
2018-12-18T04:41:40.371Z,15.77
2018-12-18T04:42:40.943Z,15.73
2018-12-18T04:43:41.517Z,15.79
2018-12-18T04:44:42.089Z,15.72
2018-12-18T04:48:44.103Z,15.55
2018-12-18T05:10:25.734Z,15.64
2018-12-18T05:13:32.212Z,15.68
2018-12-18T05:49:56.117Z,15.58
2018-12-18T06:05:03.051Z,15.55
2018-12-18T06:05:58.965Z,15.46
2018-12-18T06:06:59.581Z,15.44
2018-12-18T06:08:00.146Z,15.47
2018-12-18T06:09:45.059Z,15.54
2018-12-18T06:10:45.674Z,15.55
2018-12-18T06:11:46.240Z,15.54
2018-12-18T06:12:46.811Z,15.44
2018-12-18T06:14:31.766Z,15.46
2018-12-18T06:15:32.329Z,15.46
2018-12-18T06:16:32.946Z,15.57
2018-12-18T06:17:33.512Z,15.49
2018-12-18T06:19:18.427Z,15.57
2018-12-18T06:20:18.992Z,15.44
2018-12-18T06:21:19.563Z,15.52
2018-12-18T06:22:20.126Z,15.44
2018-12-18T06:24:05.040Z,15.58
2018-12-18T06:25:05.607Z,15.58
2018-12-18T06:26:06.218Z,15.59
2018-12-18T06:27:06.828Z,15.46
2018-12-18T06:28:51.742Z,15.49
2018-12-18T06:29:52.308Z,15.47
2018-12-18T06:30:52.977Z,15.44
2018-12-18T06:31:53.543Z,15.49
2018-12-18T06:33:38.560Z,15.47
2018-12-18T06:34:39.130Z,15.57
2018-12-18T06:35:39.700Z,15.46
2018-12-18T06:36:40.263Z,15.47
2018-12-18T06:38:25.279Z,15.49
2018-12-18T06:39:25.846Z,15.54
2018-12-18T06:40:40.177Z,15.55
2018-12-18T06:41:40.746Z,15.47
2018-12-18T06:42:41.314Z,15.42
2018-12-18T06:43:41.879Z,15.49
2018-12-18T06:45:26.793Z,15.51
2018-12-18T06:46:27.360Z,15.42
2018-12-18T06:47:27.929Z,15.51
2018-12-18T06:48:28.539Z,15.54
2018-12-18T06:49:42.871Z,15.44
2018-12-18T06:50:43.486Z,15.49
2018-12-18T06:51:44.054Z,15.54
2018-12-18T06:52:44.621Z,15.44
2018-12-18T06:54:29.585Z,15.47
2018-12-18T06:55:30.153Z,15.44
2018-12-18T06:56:30.721Z,15.51
2018-12-18T06:57:31.338Z,15.51
2018-12-18T06:59:16.252Z,15.46
2018-12-18T07:00:16.831Z,15.57
2018-12-18T07:01:17.398Z,15.43
2018-12-18T07:02:17.965Z,15.47
2018-12-18T07:04:02.882Z,15.52
2018-12-18T07:05:03.447Z,15.46
2018-12-18T07:06:04.017Z,15.54
2018-12-18T07:07:04.583Z,15.55
2018-12-18T07:08:49.600Z,15.44
2018-12-18T07:09:50.168Z,15.44
2018-12-18T07:10:50.736Z,15.44
2018-12-18T07:11:51.300Z,15.43
2018-12-18T07:13:36.217Z,15.47
2018-12-18T07:14:36.782Z,15.49
2018-12-18T07:15:37.351Z,15.42
2018-12-18T07:16:37.918Z,15.47
2018-12-18T07:18:22.884Z,15.43
2018-12-18T07:19:23.450Z,15.52
2018-12-18T07:20:24.018Z,15.51
2018-12-18T07:21:24.584Z,15.40
2018-12-18T07:23:09.501Z,15.49
2018-12-18T07:24:14.020Z,15.47
2018-12-18T07:25:11.677Z,15.46
2018-12-18T07:26:12.245Z,15.47
2018-12-18T07:27:57.211Z,15.47
2018-12-18T07:28:57.786Z,15.43
2018-12-18T07:29:58.351Z,15.43
2018-12-18T07:30:58.918Z,15.46
2018-12-18T07:32:43.833Z,15.46
2018-12-18T07:33:44.405Z,15.37
2018-12-18T07:34:44.969Z,15.47
2018-12-18T07:35:45.585Z,15.47
2018-12-18T07:37:30.503Z,15.35
2018-12-18T07:38:31.067Z,15.39
2018-12-18T07:39:31.637Z,15.42
2018-12-18T07:40:32.203Z,15.40
2018-12-18T07:42:17.117Z,15.47
2018-12-18T07:43:17.684Z,15.47
2018-12-18T07:44:18.254Z,15.51
2018-12-18T07:45:18.874Z,15.54
2018-12-18T07:47:03.829Z,15.47
2018-12-18T07:48:04.406Z,15.46
2018-12-18T07:50:06.549Z,15.40
2018-12-18T07:51:51.686Z,15.46
2018-12-18T07:52:52.259Z,15.47
2018-12-18T07:53:52.833Z,15.43
2018-12-18T07:54:53.409Z,15.46
2018-12-18T07:56:38.494Z,15.44
2018-12-18T07:57:39.069Z,15.46
2018-12-18T07:58:39.695Z,15.42
2018-12-18T07:59:40.267Z,15.42
2018-12-18T08:01:25.351Z,15.40
2018-12-18T08:02:25.926Z,15.44
2018-12-18T08:03:26.499Z,15.42
2018-12-18T08:04:27.073Z,15.49
2018-12-18T08:06:12.159Z,15.40
2018-12-18T08:07:12.784Z,15.43
2018-12-18T08:08:13.357Z,15.49
2018-12-18T08:09:13.931Z,15.47
2018-12-18T08:10:59.066Z,15.47
2018-12-18T08:11:59.644Z,15.51
2018-12-18T08:13:00.214Z,15.54
2018-12-18T08:14:00.787Z,15.43
2018-12-18T08:15:45.874Z,15.42
2018-12-18T08:16:46.447Z,15.39
2018-12-18T08:17:47.020Z,15.35
2018-12-18T08:18:47.645Z,15.40
2018-12-18T08:20:32.729Z,15.43
2018-12-18T08:21:33.303Z,15.39
2018-12-18T08:22:33.876Z,15.37
2018-12-18T08:23:34.450Z,15.47
2018-12-18T08:25:19.535Z,15.44
2018-12-18T08:26:20.113Z,15.47
2018-12-18T08:27:20.682Z,15.46
2018-12-18T08:28:21.259Z,15.47
2018-12-18T08:30:06.394Z,15.40
2018-12-18T08:31:07.011Z,15.40
2018-12-18T08:32:07.582Z,15.42
2018-12-18T08:33:08.210Z,15.46
2018-12-18T08:34:53.292Z,15.52
2018-12-18T08:35:53.865Z,15.43
2018-12-18T08:36:54.438Z,15.43
2018-12-18T08:37:55.012Z,15.37
2018-12-18T08:39:40.098Z,15.47
2018-12-18T08:40:40.722Z,15.44
2018-12-18T08:41:41.296Z,15.46
2018-12-18T08:42:41.881Z,15.54
2018-12-18T08:44:26.969Z,15.62
2018-12-18T08:45:27.543Z,15.62
2018-12-18T08:46:28.117Z,15.62
2018-12-18T08:47:28.690Z,15.57
2018-12-18T08:49:13.776Z,15.57
2018-12-18T08:50:14.500Z,15.58
2018-12-18T08:51:15.073Z,15.58
2018-12-18T08:52:15.646Z,15.61
2018-12-18T08:54:00.734Z,15.58
2018-12-18T08:55:01.308Z,15.58
2018-12-18T08:56:01.882Z,15.58
2018-12-18T08:57:02.454Z,15.52
2018-12-18T08:58:47.639Z,15.57
2018-12-18T08:59:48.215Z,15.55
2018-12-18T09:00:48.785Z,15.58
2018-12-18T09:01:49.358Z,15.46
2018-12-18T09:03:34.444Z,15.51
2018-12-18T09:04:35.017Z,15.43
2018-12-18T09:05:35.590Z,15.51
2018-12-18T09:06:36.163Z,15.43
2018-12-18T09:08:21.251Z,15.47
2018-12-18T09:09:21.918Z,15.52
2018-12-18T09:10:22.488Z,15.46
2018-12-18T09:11:23.062Z,15.46
2018-12-18T09:13:08.146Z,15.47
2018-12-18T09:14:08.720Z,15.47
2018-12-18T09:15:09.344Z,15.49
2018-12-18T09:16:09.916Z,15.47
2018-12-18T09:17:55.052Z,15.52
2018-12-18T09:18:55.626Z,15.47
2018-12-18T09:19:56.244Z,15.52
2018-12-18T09:20:56.815Z,15.43
2018-12-18T09:22:41.901Z,15.43
2018-12-18T09:23:42.480Z,15.58
2018-12-18T09:24:43.098Z,15.46
2018-12-18T09:25:43.671Z,15.47
2018-12-18T09:27:28.755Z,15.49
2018-12-18T09:28:29.330Z,15.46
2018-12-18T09:29:29.902Z,15.51
2018-12-18T09:30:30.477Z,15.51
2018-12-18T09:32:15.562Z,15.43
2018-12-18T09:33:16.190Z,15.52
2018-12-18T09:34:16.756Z,15.44
2018-12-18T09:35:17.329Z,15.46
2018-12-18T09:37:02.466Z,15.51
2018-12-18T09:38:03.040Z,15.51
2018-12-18T09:39:03.611Z,15.47
2018-12-18T09:40:04.234Z,15.47
2018-12-18T09:41:49.318Z,15.51
2018-12-18T09:42:49.892Z,15.55
2018-12-18T09:43:50.465Z,15.51
2018-12-18T09:44:51.038Z,15.57
2018-12-18T09:46:36.175Z,15.46
2018-12-18T09:47:36.752Z,15.51
2018-12-18T09:48:37.375Z,15.49
2018-12-18T09:49:37.946Z,15.47
2018-12-18T09:51:23.032Z,15.51
2018-12-18T09:52:23.605Z,15.52
2018-12-18T09:53:24.228Z,15.43
2018-12-18T09:54:24.801Z,15.55
2018-12-18T09:56:09.884Z,15.51
2018-12-18T09:57:10.458Z,15.44
2018-12-18T09:58:11.031Z,15.49
2018-12-18T09:59:11.660Z,15.44
2018-12-18T10:00:56.782Z,15.47
2018-12-18T10:01:57.356Z,15.52
2018-12-18T10:02:57.932Z,15.47
2018-12-18T10:03:58.552Z,15.57
2018-12-18T10:05:43.635Z,15.54
2018-12-18T10:06:45.086Z,15.47
2018-12-18T10:07:45.772Z,15.47
2018-12-18T10:08:46.344Z,15.37
2018-12-18T10:10:31.428Z,15.49
2018-12-18T10:11:32.001Z,15.51
2018-12-18T10:12:32.574Z,15.47
2018-12-18T10:13:33.297Z,15.42
2018-12-18T10:15:18.384Z,15.49
2018-12-18T10:16:18.961Z,15.43
2018-12-18T10:17:19.577Z,15.44
2018-12-18T10:18:20.149Z,15.42
2018-12-18T10:20:05.233Z,15.49
2018-12-18T10:21:05.806Z,15.47
2018-12-18T10:22:06.379Z,15.37
2018-12-18T10:23:07.003Z,15.47
2018-12-18T10:24:52.137Z,15.40
2018-12-18T10:25:52.710Z,15.44
2018-12-18T10:26:53.282Z,15.46
2018-12-18T10:27:53.855Z,15.52
2018-12-18T10:29:38.943Z,15.49
2018-12-18T10:30:39.516Z,15.49
2018-12-18T10:31:40.089Z,15.52
2018-12-18T10:32:40.662Z,15.46
2018-12-18T10:34:25.749Z,15.46
2018-12-18T10:35:26.321Z,15.47
2018-12-18T10:36:26.944Z,15.47
2018-12-18T10:37:27.517Z,15.46
2018-12-18T10:39:12.751Z,15.44
2018-12-18T10:40:13.323Z,15.46
2018-12-18T10:41:13.898Z,15.47
2018-12-18T10:42:14.473Z,15.46
2018-12-18T10:43:59.608Z,15.44
2018-12-18T10:45:00.187Z,15.47
2018-12-18T10:46:00.796Z,15.49
2018-12-18T10:47:01.369Z,15.47
2018-12-18T10:48:46.454Z,15.49
2018-12-18T10:49:47.027Z,15.47
2018-12-18T10:50:47.600Z,15.49
2018-12-18T10:51:48.174Z,15.47
2018-12-18T10:53:33.261Z,15.49
2018-12-18T10:54:33.885Z,15.47
2018-12-18T10:55:34.456Z,15.43
2018-12-18T10:56:35.038Z,15.47
2018-12-18T10:58:23.998Z,15.52
2018-12-18T10:59:21.723Z,15.44
2018-12-18T11:00:22.344Z,15.43
2018-12-18T11:01:22.917Z,15.43
2018-12-18T11:03:08.056Z,15.46
2018-12-18T11:04:08.628Z,15.47
2018-12-18T11:05:09.200Z,15.51
2018-12-18T11:06:10.304Z,15.54
2018-12-18T11:07:55.520Z,15.42
2018-12-18T11:08:56.094Z,15.43
2018-12-18T11:09:56.759Z,15.47
2018-12-18T11:10:57.329Z,15.47
2018-12-18T11:12:42.416Z,15.44
2018-12-18T11:13:42.989Z,15.47
2018-12-18T11:14:43.562Z,15.49
2018-12-18T11:15:44.136Z,15.51
2018-12-18T11:17:29.274Z,15.49
2018-12-18T11:18:29.845Z,15.44
2018-12-18T11:19:30.418Z,15.49
2018-12-18T11:20:30.991Z,15.51
2018-12-18T11:22:16.131Z,15.43
2018-12-18T11:23:16.856Z,15.51
2018-12-18T11:24:17.429Z,15.52
2018-12-18T11:25:18.004Z,15.44
2018-12-18T11:27:03.090Z,15.51
2018-12-18T11:28:03.664Z,15.49
2018-12-18T11:29:04.286Z,15.47
2018-12-18T11:30:04.858Z,15.49
2018-12-18T11:31:49.943Z,15.51
2018-12-18T11:32:50.517Z,15.49
2018-12-18T11:33:51.089Z,15.44
2018-12-18T11:34:51.662Z,15.44
2018-12-18T11:36:36.892Z,15.49
2018-12-18T11:37:37.465Z,15.51
2018-12-18T11:38:38.079Z,15.54
2018-12-18T11:39:38.702Z,15.46
2018-12-18T11:41:23.882Z,15.49
2018-12-18T11:42:24.455Z,15.51
2018-12-18T11:43:25.026Z,15.52
2018-12-18T11:44:25.600Z,15.46
2018-12-18T11:46:10.686Z,15.51
2018-12-18T11:47:11.260Z,15.49
2018-12-18T11:48:11.882Z,15.54
2018-12-18T11:49:12.456Z,15.49
2018-12-18T11:50:57.540Z,15.54
2018-12-18T11:51:58.116Z,15.47
2018-12-18T11:52:58.687Z,15.49
2018-12-18T11:53:59.260Z,15.49
2018-12-18T11:55:44.346Z,15.46
2018-12-18T11:56:44.918Z,15.57
2018-12-18T11:57:45.492Z,15.47
2018-12-18T11:58:46.066Z,15.52
2018-12-18T12:00:31.202Z,15.51
2018-12-18T12:01:31.976Z,15.43
2018-12-18T12:02:32.548Z,15.42
2018-12-18T12:03:33.170Z,15.44
2018-12-18T12:05:18.255Z,15.31
2018-12-18T12:06:23.025Z,15.33
2018-12-18T12:07:20.395Z,15.39
2018-12-18T12:08:20.966Z,15.36
2018-12-18T12:10:06.050Z,15.29
2018-12-18T12:11:06.623Z,15.25
2018-12-18T12:12:07.195Z,15.27
2018-12-18T12:13:07.768Z,15.11
2018-12-18T12:14:52.858Z,15.22
2018-12-18T12:15:53.431Z,15.17
2018-12-18T12:16:54.051Z,15.18
2018-12-18T12:17:54.629Z,15.17
2018-12-18T12:19:39.758Z,15.21
2018-12-18T12:20:40.331Z,15.25
2018-12-18T12:21:40.904Z,15.21
2018-12-18T12:22:41.521Z,15.14
2018-12-18T12:24:26.607Z,15.15
2018-12-18T12:25:27.229Z,15.21
2018-12-18T12:26:27.801Z,15.04
2018-12-18T12:27:28.374Z,15.14
2018-12-18T12:29:13.508Z,15.11
2018-12-18T12:30:14.081Z,15.04
2018-12-18T12:31:14.754Z,15.10
2018-12-18T12:32:15.425Z,15.09
2018-12-18T12:34:00.462Z,15.21
2018-12-18T12:35:01.041Z,15.11
2018-12-18T12:36:01.725Z,15.17
2018-12-18T12:37:02.253Z,15.14
2018-12-18T12:38:47.341Z,15.09
2018-12-18T12:39:47.914Z,15.19
2018-12-18T12:40:48.488Z,15.18
2018-12-18T12:41:49.062Z,15.15
2018-12-18T12:43:34.600Z,15.11
2018-12-18T12:44:35.213Z,15.17
2018-12-18T12:45:35.784Z,15.10
2018-12-18T12:46:36.356Z,15.10
2018-12-18T12:48:21.441Z,15.10
2018-12-18T12:49:22.065Z,14.99
2018-12-18T12:50:22.687Z,15.07
2018-12-18T12:51:23.269Z,15.17
2018-12-18T12:53:08.395Z,15.11
2018-12-18T12:54:08.969Z,15.14
2018-12-18T12:55:09.541Z,15.17
2018-12-18T12:56:10.115Z,15.14
2018-12-18T12:57:55.251Z,15.14
2018-12-18T12:58:55.824Z,15.15
2018-12-18T12:59:56.395Z,15.10
2018-12-18T13:00:56.972Z,15.15
2018-12-18T13:02:42.062Z,15.14
2018-12-18T13:03:42.665Z,15.14
2018-12-18T13:04:43.237Z,15.18
2018-12-18T13:05:43.858Z,15.18
2018-12-18T13:07:28.994Z,15.17
2018-12-18T13:08:29.567Z,15.18
2018-12-18T13:09:30.139Z,15.19
2018-12-18T13:10:30.713Z,15.19
2018-12-18T13:12:15.799Z,15.19
2018-12-18T13:13:16.375Z,15.19
2018-12-18T13:14:16.945Z,15.18
2018-12-18T13:15:17.518Z,15.19
2018-12-18T13:17:02.605Z,15.19
2018-12-18T13:18:03.179Z,15.19
2018-12-18T13:19:03.752Z,15.11
2018-12-18T13:20:04.325Z,15.21
2018-12-18T13:21:49.560Z,15.21
2018-12-18T13:22:50.134Z,15.21
2018-12-18T13:23:50.706Z,15.18
2018-12-18T13:24:51.278Z,15.18
2018-12-18T13:26:36.415Z,15.21
2018-12-18T13:27:36.989Z,15.24
2018-12-18T13:28:37.561Z,15.15
2018-12-18T13:29:38.183Z,15.17
2018-12-18T13:31:23.268Z,15.29
2018-12-18T13:32:23.843Z,15.22
2018-12-18T13:33:24.415Z,15.28
2018-12-18T13:34:25.041Z,15.25
2018-12-18T13:36:10.121Z,15.28
2018-12-18T13:37:10.695Z,15.24
2018-12-18T13:38:11.276Z,15.22
2018-12-18T13:39:11.839Z,15.22
2018-12-18T13:40:56.925Z,15.25
2018-12-18T13:41:57.498Z,15.17
2018-12-18T13:42:58.072Z,15.17
2018-12-18T13:43:58.695Z,15.19
2018-12-18T13:45:43.832Z,15.18
2018-12-18T13:46:44.402Z,15.04
2018-12-18T13:47:44.986Z,15.22
2018-12-18T13:48:45.706Z,15.11
2018-12-18T13:50:30.792Z,15.21
2018-12-18T13:51:31.367Z,15.17
2018-12-18T13:52:31.942Z,15.19
2018-12-18T13:53:32.512Z,15.15
2018-12-18T13:55:17.600Z,15.07
2018-12-18T13:56:18.172Z,15.09
2018-12-18T13:57:18.746Z,15.10
2018-12-18T13:58:19.318Z,15.06
2018-12-18T14:00:04.405Z,15.07
2018-12-18T14:01:05.028Z,15.06
2018-12-18T14:02:05.645Z,15.10
2018-12-18T14:03:06.173Z,15.14
2018-12-18T14:04:51.306Z,15.17
2018-12-18T14:05:51.879Z,15.10
2018-12-18T14:06:52.451Z,15.09
2018-12-18T14:07:53.025Z,15.03
2018-12-18T14:09:38.161Z,15.09
2018-12-18T14:10:38.733Z,15.10
2018-12-18T14:11:39.305Z,15.10
2018-12-18T14:12:39.879Z,15.15
2018-12-18T14:14:24.965Z,15.07
2018-12-18T14:15:25.546Z,15.00
2018-12-18T14:16:26.158Z,15.10
2018-12-18T14:17:26.730Z,15.00
2018-12-18T14:19:12.273Z,15.04
2018-12-18T14:20:12.837Z,15.03
2018-12-18T14:21:13.413Z,15.03
2018-12-18T14:22:13.983Z,15.03
2018-12-18T14:23:59.119Z,14.94
2018-12-18T14:24:59.742Z,15.07
2018-12-18T14:26:00.313Z,14.97
2018-12-18T14:27:00.885Z,15.00
2018-12-18T14:28:46.069Z,15.02
2018-12-18T14:29:46.644Z,15.11
2018-12-18T14:30:47.264Z,15.10
2018-12-18T14:31:47.835Z,15.09
2018-12-18T14:33:32.921Z,15.15
2018-12-18T14:34:33.494Z,15.14
2018-12-18T14:35:34.068Z,15.14
2018-12-18T14:36:34.638Z,15.15
2018-12-18T14:38:19.724Z,15.15
2018-12-18T14:39:20.298Z,15.17
2018-12-18T14:40:20.919Z,15.15
2018-12-18T14:41:21.493Z,15.18
2018-12-18T14:43:06.577Z,15.15
2018-12-18T14:44:07.200Z,15.15
2018-12-18T14:45:07.822Z,15.17
2018-12-18T14:46:08.393Z,15.17
2018-12-18T14:47:53.480Z,15.09
2018-12-18T14:48:54.050Z,15.10
2018-12-18T14:49:54.623Z,15.11
2018-12-18T14:50:55.196Z,15.11
2018-12-18T14:52:40.282Z,15.11
2018-12-18T14:53:40.855Z,15.10
2018-12-18T14:54:41.429Z,15.11
2018-12-18T14:55:42.001Z,15.11
2018-12-18T14:57:27.137Z,15.17
2018-12-18T14:58:27.710Z,15.11
2018-12-18T14:59:28.284Z,15.07
2018-12-18T15:00:28.855Z,15.18
2018-12-18T15:02:13.941Z,15.14
2018-12-18T15:03:14.565Z,15.25
2018-12-18T15:04:15.187Z,15.15
2018-12-18T15:05:15.759Z,15.18
2018-12-18T15:07:03.071Z,15.27
2018-12-18T15:08:02.409Z,15.21
2018-12-18T15:09:02.980Z,15.18
2018-12-18T15:10:03.553Z,15.19
2018-12-18T15:11:48.638Z,15.19
2018-12-18T15:12:49.212Z,15.29
2018-12-18T15:13:49.789Z,15.27
2018-12-18T15:14:50.400Z,15.36
2018-12-18T15:16:35.537Z,15.35
2018-12-18T15:17:36.116Z,15.43
2018-12-18T15:18:36.738Z,15.44
2018-12-18T15:19:37.268Z,15.47
2018-12-18T15:21:22.433Z,15.43
2018-12-18T15:22:23.006Z,15.44
2018-12-18T15:23:23.577Z,15.42
2018-12-18T15:24:24.203Z,15.43
2018-12-18T15:26:09.288Z,15.58
2018-12-18T15:27:09.861Z,15.58
2018-12-18T15:28:10.435Z,15.61
2018-12-18T15:29:11.011Z,15.61
2018-12-18T15:30:56.095Z,15.61
2018-12-18T15:31:56.719Z,15.61
2018-12-18T15:32:57.291Z,15.59
2018-12-18T15:33:57.866Z,15.73
2018-12-18T15:35:42.949Z,15.77
2018-12-18T15:36:43.573Z,15.77
2018-12-18T15:37:44.191Z,15.77
2018-12-18T15:38:44.764Z,15.72
2018-12-18T15:40:29.846Z,15.76
2018-12-18T15:41:30.420Z,15.80
2018-12-18T15:42:30.995Z,15.82
2018-12-18T15:43:31.566Z,15.83
2018-12-18T15:45:16.653Z,15.88
2018-12-18T15:46:17.228Z,15.84
2018-12-18T15:47:17.801Z,15.79
2018-12-18T15:48:18.424Z,15.86
2018-12-18T15:50:03.563Z,15.88
2018-12-18T15:51:04.134Z,15.97
2018-12-18T15:52:04.705Z,15.86
2018-12-18T15:53:05.278Z,15.88
2018-12-18T15:54:50.413Z,15.84
2018-12-18T15:55:50.987Z,15.88
2018-12-18T15:56:51.560Z,15.95
2018-12-18T15:57:52.132Z,15.90
2018-12-18T15:59:37.222Z,15.91
2018-12-18T16:00:37.796Z,16.02
2018-12-18T16:01:38.367Z,16.00
2018-12-18T16:02:38.941Z,15.98
2018-12-18T16:04:24.027Z,16.00
2018-12-18T16:05:24.603Z,16.05
2018-12-18T16:06:25.176Z,15.97
2018-12-18T16:07:25.750Z,16.08
2018-12-18T16:09:10.883Z,16.04
2018-12-18T16:10:11.457Z,16.04
2018-12-18T16:11:12.080Z,16.08
2018-12-18T16:12:12.654Z,16.08
2018-12-18T16:13:57.788Z,16.04
2018-12-18T16:14:58.369Z,16.05
2018-12-18T16:15:58.934Z,16.04
2018-12-18T16:16:59.560Z,16.12
2018-12-18T16:18:44.642Z,16.04
2018-12-18T16:19:45.216Z,16.05
2018-12-18T16:20:45.788Z,16.12
2018-12-18T16:21:46.361Z,16.02
2018-12-18T16:23:31.448Z,16.05
2018-12-18T16:24:32.022Z,16.05
2018-12-18T16:26:34.151Z,16.08
2018-12-18T16:28:23.118Z,16.09
2018-12-18T16:29:23.683Z,16.09
2018-12-18T16:30:24.250Z,16.09
2018-12-18T16:31:37.621Z,16.05
2018-12-18T16:33:22.711Z,16.01
2018-12-18T16:34:23.285Z,16.08
2018-12-18T16:36:25.470Z,16.04
2018-12-18T16:38:10.432Z,16.05
2018-12-18T16:39:11.040Z,16.09
2018-12-18T16:40:11.609Z,16.05
2018-12-18T16:41:12.175Z,16.12
2018-12-18T16:42:57.089Z,16.05
2018-12-18T16:43:57.705Z,16.13
2018-12-18T16:44:58.272Z,16.08
2018-12-18T16:45:58.839Z,16.05
2018-12-18T16:47:43.803Z,16.04
2018-12-18T16:48:44.372Z,16.09
2018-12-18T16:49:44.938Z,16.01
2018-12-18T16:50:45.509Z,16.05
2018-12-18T16:52:30.426Z,16.08
2018-12-18T16:53:31.044Z,15.98
2018-12-18T16:54:31.652Z,15.95
2018-12-18T16:55:32.221Z,15.97
2018-12-18T16:57:17.136Z,15.97
2018-12-18T16:58:17.702Z,15.92
2018-12-18T16:59:18.274Z,15.94
2018-12-18T17:00:18.838Z,16.00
2018-12-18T17:02:03.803Z,15.94
2018-12-18T17:03:04.372Z,15.97
2018-12-18T17:04:04.939Z,15.95
2018-12-18T17:05:05.506Z,15.95
2018-12-18T17:06:50.470Z,15.92
2018-12-18T17:07:51.038Z,15.90
2018-12-18T17:08:51.607Z,15.90
2018-12-18T17:09:52.174Z,15.86
2018-12-18T17:11:37.186Z,15.84
2018-12-18T17:12:37.755Z,15.86
2018-12-18T17:13:38.373Z,15.86
2018-12-18T17:14:38.941Z,15.86
2018-12-18T17:16:23.857Z,15.90
2018-12-18T17:17:24.425Z,15.86
2018-12-18T17:18:24.995Z,15.83
2018-12-18T17:19:25.564Z,15.83
2018-12-18T17:21:10.526Z,15.86
2018-12-18T17:22:11.102Z,15.82